Главная страница
METAR-TAF:

METAR-TAF

Аэропорты :

Oswego County Airport

Фултон, Нью-Йорк, США

широта: 43-21-03N, долгота: 076-23-17W, высота над уровнем моря: 145 м

Текущие метеонаблюдения

Эта сводка был подготовлена 1 час и 2 минут назад, в 11:54 UTC
Штиль
Температура -2°C
Влажность 69%
Давление 1027 hPa
Видимость: 16.1 км
Сплошная облачность на высоте 4100 фута

METAR: KFZY 181154Z AUTO 00000KT 10SM OVC041 M02/M07 A3034 RMK AO2 SLP280 70013 T10171072 11006 21022 51005

Время: 07:56 (12:56 UTC)


TAF: отсутствует

Метеонаблюдения и прогнозы для более 4000 аэропортов (сводки METAR и TAF).

Имеющиеся станции представлены на карте желтыми и красными точками.

Чтобы увидеть название станции, наведите на нее мышь.

Затем щелкните, чтобы увидеть метеонаблюдения и метеопрогнозы.

Управление картой: чтобы увеличить масштаб, щелкните зеленые кнопки с черным крестиком; чтобы уменьшить масштаб, щелкните зеленую кнопку с тире; для просмотра соседних карт щелкайте зеленые стрелки.


METAR-TAF: